Wednesday, August 15, 2018, 11:58 PM EDT
Back to Local

KCJR, Culpeper, Culpeper County Airport

Location: Elkwood, VA, United States Lat: 38.527
Local Time: 11:58 PM EDT ( 3:58 GMT) Lon: -77.859
Time Zone: US/Eastern Elev: 311 ft

Show me the last for .
Show Decoded

2018-08-15 23:35 METAR KCJR 160335Z AUTO 00000KT 3SM BR CLR 22/21 A3009 RMK AO2 T02160207 =
2018-08-15 23:15 METAR KCJR 160315Z AUTO 00000KT 5SM BR CLR 22/21 A3009 RMK AO2 T02200210 =
2018-08-15 22:55 METAR KCJR 160255Z AUTO 00000KT 4SM BR CLR 22/21 A3008 RMK AO2 T02200210 =
2018-08-15 22:35 METAR KCJR 160235Z AUTO 00000KT 5SM BR CLR 22/21 A3008 RMK AO2 T02220213 =
2018-08-15 22:15 METAR KCJR 160215Z AUTO 00000KT 7SM CLR 22/21 A3008 RMK AO2 T02240213 =
2018-08-15 21:55 METAR KCJR 160155Z AUTO 00000KT 10SM CLR 23/22 A3007 RMK AO2 T02280216 =
2018-08-15 21:35 METAR KCJR 160135Z AUTO 00000KT 10SM CLR 23/22 A3007 RMK AO2 T02280218 =
2018-08-15 21:15 METAR KCJR 160115Z AUTO 00000KT 10SM CLR 23/22 A3006 RMK AO2 T02300217 =
2018-08-15 20:55 METAR KCJR 160055Z AUTO 00000KT 10SM CLR 23/22 A3006 RMK AO2 T02330217 =
2018-08-15 20:35 METAR KCJR 160035Z AUTO 00000KT 10SM CLR 24/22 A3005 RMK AO2 T02360221 =
2018-08-15 20:15 METAR KCJR 160015Z AUTO 00000KT 10SM CLR 24/22 A3005 RMK AO2 T02420223 =
2018-08-15 19:55 METAR KCJR 152355Z AUTO 00000KT 10SM CLR 25/23 A3004 RMK AO2 T02520225 10314
                 20252 =
2018-08-15 19:35 METAR KCJR 152335Z AUTO 00000KT 10SM CLR 26/23 A3004 RMK AO2 T02580229 =
2018-08-15 19:15 METAR KCJR 152315Z AUTO 00000KT 10SM CLR 27/22 A3004 RMK AO2 T02740223 =
2018-08-15 18:55 METAR KCJR 152255Z AUTO 00000KT 10SM CLR 29/20 A3003 RMK AO2 T02940200 =
2018-08-15 18:35 METAR KCJR 152235Z AUTO 00000KT 10SM CLR 30/20 A3003 RMK AO2 T03010199 =
2018-08-15 18:15 METAR KCJR 152215Z AUTO 00000KT 10SM CLR 31/20 A3003 RMK AO2 T03060201 =
2018-08-15 17:55 METAR KCJR 152155Z AUTO 00000KT 10SM CLR 30/20 A3003 RMK AO2 T02990199 =
2018-08-15 17:35 METAR KCJR 152135Z AUTO 00000KT 10SM CLR 31/19 A3003 RMK AO2 T03100194 =
2018-08-15 17:15 METAR KCJR 152115Z AUTO 00000KT 10SM CLR 31/20 A3003 RMK AO2 T03050201 =
2018-08-15 16:55 METAR KCJR 152055Z AUTO 00000KT 10SM SCT070 30/21 A3003 RMK AO2 T03040207 =
2018-08-15 16:35 METAR KCJR 152035Z AUTO 00000KT 10SM CLR 31/19 A3004 RMK AO2 T03050192 =
2018-08-15 16:15 METAR KCJR 152015Z AUTO 27003KT 10SM SCT055 SCT065 31/20 A3004 RMK AO2 T03110202
                 =
2018-08-15 15:55 METAR KCJR 151955Z AUTO 28003KT 10SM CLR 31/19 A3004 RMK AO2 T03070191 =
2018-08-15 15:35 METAR KCJR 151935Z AUTO 22003KT 10SM SCT050 SCT070 31/19 A3004 RMK AO2 T03100190
                 =
2018-08-15 15:15 METAR KCJR 151915Z AUTO 00000KT 10SM SCT050 BKN070 31/19 A3004 RMK AO2 T03140193
                 =
2018-08-15 14:55 METAR KCJR 151855Z AUTO 24004KT 10SM SCT050 SCT060 BKN070 30/19 A3004 RMK AO2
                 T03040187 =
2018-08-15 14:35 METAR KCJR 151835Z AUTO 00000KT 10SM BKN050 31/19 A3004 RMK AO2 T03070190 =
2018-08-15 14:15 METAR KCJR 151815Z AUTO 00000KT 10SM SCT048 31/18 A3004 RMK AO2 T03080179 =
2018-08-15 13:55 METAR KCJR 151755Z AUTO 00000KT 10SM CLR 31/18 A3005 RMK AO2 T03080183 10311
                 20210 =
2018-08-15 13:35 METAR KCJR 151735Z AUTO 20003KT 10SM CLR 31/19 A3005 RMK AO2 T03060186 =
2018-08-15 13:15 METAR KCJR 151715Z AUTO 00000KT 10SM SCT042 30/19 A3006 RMK AO2 T03040185 =
2018-08-15 12:55 METAR KCJR 151655Z AUTO 34003KT 10SM SCT042 30/19 A3006 RMK AO2 T03030194 =
2018-08-15 12:35 METAR KCJR 151635Z AUTO 00000KT 10SM CLR 30/20 A3006 RMK AO2 T03010198 =
2018-08-15 12:15 METAR KCJR 151615Z AUTO 00000KT 10SM CLR 30/20 A3006 RMK AO2 T02970197 =
2018-08-15 11:55 METAR KCJR 151555Z AUTO 36003KT 10SM CLR 29/19 A3006 RMK AO2 T02920190 =
2018-08-15 11:35 METAR KCJR 151535Z AUTO 34003KT 10SM CLR 29/20 A3007 RMK AO2 T02910196 =
2018-08-15 11:15 METAR KCJR 151515Z AUTO 00000KT 10SM CLR 29/20 A3007 RMK AO2 T02880198 =
2018-08-15 10:55 METAR KCJR 151455Z AUTO 00000KT 10SM CLR 29/20 A3007 RMK AO2 T02850196 =
2018-08-15 10:35 METAR KCJR 151435Z AUTO 29005KT 10SM CLR 29/20 A3007 RMK AO2 T02850196 =
2018-08-15 10:15 METAR KCJR 151415Z AUTO 28004KT 10SM CLR 28/20 A3007 RMK AO2 T02810197 =
2018-08-15 09:55 METAR KCJR 151355Z AUTO 32005KT 10SM CLR 28/19 A3006 RMK AO2 T02750190 =
2018-08-15 09:35 METAR KCJR 151335Z AUTO 27003KT 10SM CLR 27/19 A3006 RMK AO2 T02680192 =
2018-08-15 09:15 METAR KCJR 151315Z AUTO 00000KT 10SM CLR 26/19 A3006 RMK AO2 T02580194 =
2018-08-15 08:55 METAR KCJR 151255Z AUTO 00000KT 10SM CLR 25/19 A3006 RMK AO2 T02460194 =
2018-08-15 08:35 METAR KCJR 151235Z AUTO 00000KT 10SM CLR 23/20 A3005 RMK AO2 T02320198 =
2018-08-15 08:15 METAR KCJR 151215Z AUTO 00000KT 10SM CLR 22/20 A3004 RMK AO2 T02230200 =
2018-08-15 07:55 METAR KCJR 151155Z AUTO 00000KT 10SM CLR 21/20 A3004 RMK AO2 T02100195 10219
                 20182 =
2018-08-15 07:35 METAR KCJR 151135Z AUTO 00000KT 10SM CLR 20/19 A3003 RMK AO2 T02010192 =
2018-08-15 07:15 METAR KCJR 151115Z AUTO 00000KT 10SM CLR 19/18 A3003 RMK AO2 T01910182 =
2018-08-15 06:55 METAR KCJR 151055Z AUTO 00000KT 2 1/2SM BR CLR 19/18 A3002 RMK AO2 T01890180 =
2018-08-15 06:35 METAR KCJR 151035Z AUTO 00000KT 3SM BR CLR 18/18 A3002 RMK AO2 T01830175 =
2018-08-15 06:15 METAR KCJR 151015Z AUTO 00000KT 1SM BR VV007 18/18 A3001 RMK AO2 T01840176 =
2018-08-15 05:55 METAR KCJR 150955Z AUTO 00000KT 5SM BR CLR 19/18 A3001 RMK AO2 T01880180 =
2018-08-15 05:35 METAR KCJR 150935Z AUTO 00000KT 4SM BR CLR 19/18 A3000 RMK AO2 T01870179 =
2018-08-15 05:15 METAR KCJR 150915Z AUTO 00000KT 7SM CLR 19/18 A3000 RMK AO2 T01920184 =
2018-08-15 04:55 METAR KCJR 150855Z AUTO 00000KT 4SM BR CLR 20/19 A3000 RMK AO2 T01950187 =
2018-08-15 04:35 METAR KCJR 150835Z AUTO 00000KT 10SM CLR 20/19 A3000 RMK AO2 T01990188 =
2018-08-15 04:15 METAR KCJR 150815Z AUTO 00000KT 7SM CLR 21/20 A3000 RMK AO2 T02050196 =
2018-08-15 03:55 METAR KCJR 150755Z AUTO 00000KT 10SM CLR 21/19 A3000 RMK AO2 T02100194 =
2018-08-15 03:35 METAR KCJR 150735Z AUTO 00000KT 10SM CLR 22/20 A3000 RMK AO2 T02180196 =
2018-08-15 03:15 METAR KCJR 150715Z AUTO 00000KT 10SM CLR 21/20 A3000 RMK AO2 T02090199 =
2018-08-15 02:55 METAR KCJR 150655Z AUTO 00000KT 10SM SCT110 21/20 A3000 RMK AO2 T02080197 =
2018-08-15 02:35 METAR KCJR 150635Z AUTO 00000KT 10SM BKN110 22/20 A3000 RMK AO2 T02150204 =
2018-08-15 02:15 METAR KCJR 150615Z AUTO 00000KT 7SM OVC120 21/20 A3000 RMK AO2 T02100201 =
2018-08-15 01:55 METAR KCJR 150555Z AUTO 00000KT 10SM OVC110 21/20 A3001 RMK AO2 T02120203 10253
                 20206 =
2018-08-15 01:35 METAR KCJR 150535Z AUTO 00000KT 10SM OVC110 21/20 A3001 RMK AO2 T02110202 =
2018-08-15 01:15 METAR KCJR 150515Z AUTO 00000KT 10SM OVC110 21/20 A3002 RMK AO2 T02110202 =
2018-08-15 00:55 METAR KCJR 150455Z AUTO 00000KT 10SM OVC110 21/20 A3002 RMK AO2 T02090200
                 402950161 =
2018-08-15 00:35 METAR KCJR 150435Z AUTO 00000KT 7SM SCT110 21/20 A3003 RMK AO2 T02070199 =
2018-08-15 00:15 METAR KCJR 150415Z AUTO 00000KT 7SM CLR 21/20 A3003 RMK AO2 T02080200 =

Support USWX by starting your Amazon purchase here.